sensor_id;sensor_type;location;lat;lon;timestamp;P1;durP1;ratioP1;P2;durP2;ratioP2
69053;SDS011;56125;52.242;4.756;2023-06-10T00:02:08;4.15;;;3.05;;
69053;SDS011;56125;52.242;4.756;2023-06-10T00:07:09;4.33;;;3.40;;
69053;SDS011;56125;52.242;4.756;2023-06-10T00:12:10;4.63;;;3.00;;
69053;SDS011;56125;52.242;4.756;2023-06-10T00:17:11;4.33;;;2.97;;
69053;SDS011;56125;52.242;4.756;2023-06-10T00:22:12;4.43;;;3.30;;
69053;SDS011;56125;52.242;4.756;2023-06-10T00:27:14;5.27;;;2.80;;
69053;SDS011;56125;52.242;4.756;2023-06-10T00:32:15;7.57;;;3.13;;
69053;SDS011;56125;52.242;4.756;2023-06-10T00:37:16;4.53;;;3.20;;
69053;SDS011;56125;52.242;4.756;2023-06-10T00:42:17;4.43;;;3.08;;
69053;SDS011;56125;52.242;4.756;2023-06-10T00:47:19;5.67;;;3.67;;
69053;SDS011;56125;52.242;4.756;2023-06-10T00:52:21;5.07;;;3.13;;
69053;SDS011;56125;52.242;4.756;2023-06-10T00:57:25;4.17;;;2.80;;
69053;SDS011;56125;52.242;4.756;2023-06-10T01:02:27;4.35;;;2.92;;
69053;SDS011;56125;52.242;4.756;2023-06-10T01:07:30;4.50;;;2.90;;
69053;SDS011;56125;52.242;4.756;2023-06-10T01:12:58;4.65;;;2.70;;
69053;SDS011;56125;52.242;4.756;2023-06-10T01:18:04;3.43;;;2.63;;
69053;SDS011;56125;52.242;4.756;2023-06-10T01:23:10;4.95;;;2.70;;
69053;SDS011;56125;52.242;4.756;2023-06-10T01:28:27;5.20;;;2.93;;
69053;SDS011;56125;52.242;4.756;2023-06-10T01:33:37;4.22;;;2.55;;
69053;SDS011;56125;52.242;4.756;2023-06-10T01:38:43;4.00;;;2.63;;
69053;SDS011;56125;52.242;4.756;2023-06-10T01:43:46;5.40;;;2.72;;
69053;SDS011;56125;52.242;4.756;2023-06-10T01:48:47;4.67;;;2.90;;
69053;SDS011;56125;52.242;4.756;2023-06-10T01:53:48;4.63;;;2.83;;
69053;SDS011;56125;52.242;4.756;2023-06-10T01:58:49;5.33;;;2.30;;
69053;SDS011;56125;52.242;4.756;2023-06-10T02:03:51;3.60;;;2.42;;
69053;SDS011;56125;52.242;4.756;2023-06-10T02:08:52;4.70;;;2.63;;
69053;SDS011;56125;52.242;4.756;2023-06-10T02:13:53;4.95;;;2.78;;
69053;SDS011;56125;52.242;4.756;2023-06-10T02:18:54;4.20;;;2.80;;
69053;SDS011;56125;52.242;4.756;2023-06-10T02:23:55;4.18;;;2.58;;
69053;SDS011;56125;52.242;4.756;2023-06-10T02:28:56;3.87;;;2.67;;
69053;SDS011;56125;52.242;4.756;2023-06-10T02:33:57;4.50;;;2.88;;
69053;SDS011;56125;52.242;4.756;2023-06-10T02:38:58;3.90;;;2.47;;
69053;SDS011;56125;52.242;4.756;2023-06-10T02:43:59;4.63;;;2.55;;
69053;SDS011;56125;52.242;4.756;2023-06-10T02:49:00;4.33;;;2.30;;
69053;SDS011;56125;52.242;4.756;2023-06-10T02:54:02;4.03;;;2.75;;
69053;SDS011;56125;52.242;4.756;2023-06-10T02:59:03;4.77;;;2.80;;
69053;SDS011;56125;52.242;4.756;2023-06-10T03:04:04;5.28;;;2.83;;
69053;SDS011;56125;52.242;4.756;2023-06-10T03:09:06;4.10;;;2.67;;
69053;SDS011;56125;52.242;4.756;2023-06-10T03:14:10;4.05;;;2.70;;
69053;SDS011;56125;52.242;4.756;2023-06-10T03:19:11;3.53;;;2.60;;
69053;SDS011;56125;52.242;4.756;2023-06-10T03:24:12;4.43;;;2.63;;
69053;SDS011;56125;52.242;4.756;2023-06-10T03:29:13;3.57;;;2.50;;
69053;SDS011;56125;52.242;4.756;2023-06-10T03:34:14;4.90;;;2.70;;
69053;SDS011;56125;52.242;4.756;2023-06-10T03:39:15;5.03;;;2.83;;
69053;SDS011;56125;52.242;4.756;2023-06-10T03:44:16;3.90;;;2.72;;
69053;SDS011;56125;52.242;4.756;2023-06-10T03:49:17;5.33;;;2.90;;
69053;SDS011;56125;52.242;4.756;2023-06-10T03:54:18;4.65;;;2.50;;
69053;SDS011;56125;52.242;4.756;2023-06-10T03:59:19;4.97;;;2.40;;
69053;SDS011;56125;52.242;4.756;2023-06-10T04:04:20;4.05;;;2.30;;
69053;SDS011;56125;52.242;4.756;2023-06-10T04:09:21;2.90;;;2.27;;
69053;SDS011;56125;52.242;4.756;2023-06-10T04:14:22;3.88;;;2.80;;
69053;SDS011;56125;52.242;4.756;2023-06-10T04:19:23;5.13;;;2.57;;
69053;SDS011;56125;52.242;4.756;2023-06-10T04:24:24;4.88;;;2.88;;
69053;SDS011;56125;52.242;4.756;2023-06-10T04:29:27;5.23;;;2.63;;
69053;SDS011;56125;52.242;4.756;2023-06-10T04:34:28;4.53;;;3.05;;
69053;SDS011;56125;52.242;4.756;2023-06-10T04:39:29;4.03;;;2.70;;
69053;SDS011;56125;52.242;4.756;2023-06-10T04:44:31;5.05;;;2.83;;
69053;SDS011;56125;52.242;4.756;2023-06-10T04:49:32;4.87;;;3.13;;
69053;SDS011;56125;52.242;4.756;2023-06-10T04:54:33;3.78;;;2.40;;
69053;SDS011;56125;52.242;4.756;2023-06-10T04:59:34;4.57;;;2.33;;
69053;SDS011;56125;52.242;4.756;2023-06-10T05:04:38;4.65;;;2.42;;
69053;SDS011;56125;52.242;4.756;2023-06-10T05:09:39;3.73;;;2.77;;
69053;SDS011;56125;52.242;4.756;2023-06-10T05:14:40;4.68;;;2.83;;
69053;SDS011;56125;52.242;4.756;2023-06-10T05:19:41;3.73;;;2.70;;
69053;SDS011;56125;52.242;4.756;2023-06-10T05:24:44;5.30;;;2.88;;
69053;SDS011;56125;52.242;4.756;2023-06-10T05:29:45;4.37;;;2.63;;
69053;SDS011;56125;52.242;4.756;2023-06-10T05:34:46;4.40;;;2.80;;
69053;SDS011;56125;52.242;4.756;2023-06-10T05:39:47;3.83;;;2.60;;
69053;SDS011;56125;52.242;4.756;2023-06-10T05:44:48;4.47;;;2.80;;
69053;SDS011;56125;52.242;4.756;2023-06-10T05:49:49;3.90;;;2.60;;
69053;SDS011;56125;52.242;4.756;2023-06-10T05:54:52;4.55;;;2.67;;
69053;SDS011;56125;52.242;4.756;2023-06-10T05:59:54;4.63;;;2.70;;
69053;SDS011;56125;52.242;4.756;2023-06-10T06:04:55;4.07;;;2.67;;
69053;SDS011;56125;52.242;4.756;2023-06-10T06:09:56;4.73;;;2.50;;
69053;SDS011;56125;52.242;4.756;2023-06-10T06:14:57;3.33;;;2.38;;
69053;SDS011;56125;52.242;4.756;2023-06-10T06:19:58;5.83;;;3.17;;
69053;SDS011;56125;52.242;4.756;2023-06-10T06:24:59;6.22;;;2.95;;
69053;SDS011;56125;52.242;4.756;2023-06-10T06:30:00;4.10;;;3.37;;
69053;SDS011;56125;52.242;4.756;2023-06-10T06:35:01;8.13;;;3.40;;
69053;SDS011;56125;52.242;4.756;2023-06-10T06:40:03;5.13;;;3.63;;
69053;SDS011;56125;52.242;4.756;2023-06-10T06:45:04;7.90;;;3.30;;
69053;SDS011;56125;52.242;4.756;2023-06-10T06:50:06;9.73;;;3.60;;
69053;SDS011;56125;52.242;4.756;2023-06-10T06:55:07;7.38;;;3.80;;
69053;SDS011;56125;52.242;4.756;2023-06-10T07:00:08;5.77;;;3.43;;
69053;SDS011;56125;52.242;4.756;2023-06-10T07:05:10;6.93;;;3.60;;
69053;SDS011;56125;52.242;4.756;2023-06-10T07:10:11;8.90;;;4.37;;
69053;SDS011;56125;52.242;4.756;2023-06-10T07:15:12;4.30;;;3.25;;
69053;SDS011;56125;52.242;4.756;2023-06-10T07:20:13;7.53;;;3.50;;
69053;SDS011;56125;52.242;4.756;2023-06-10T07:25:15;7.82;;;3.90;;
69053;SDS011;56125;52.242;4.756;2023-06-10T07:30:16;6.13;;;3.53;;
69053;SDS011;56125;52.242;4.756;2023-06-10T07:35:17;5.28;;;3.38;;
69053;SDS011;56125;52.242;4.756;2023-06-10T07:40:18;5.87;;;3.10;;
69053;SDS011;56125;52.242;4.756;2023-06-10T07:45:19;5.88;;;3.22;;
69053;SDS011;56125;52.242;4.756;2023-06-10T07:50:20;4.83;;;3.07;;
69053;SDS011;56125;52.242;4.756;2023-06-10T07:55:21;4.55;;;3.28;;
69053;SDS011;56125;52.242;4.756;2023-06-10T08:00:23;5.50;;;3.37;;
69053;SDS011;56125;52.242;4.756;2023-06-10T08:05:24;5.55;;;3.63;;
69053;SDS011;56125;52.242;4.756;2023-06-10T08:10:26;5.87;;;3.20;;
69053;SDS011;56125;52.242;4.756;2023-06-10T08:15:27;5.13;;;3.25;;
69053;SDS011;56125;52.242;4.756;2023-06-10T08:20:28;4.70;;;2.73;;
69053;SDS011;56125;52.242;4.756;2023-06-10T08:25:29;6.03;;;4.15;;
69053;SDS011;56125;52.242;4.756;2023-06-10T08:30:30;6.20;;;3.07;;
69053;SDS011;56125;52.242;4.756;2023-06-10T08:35:31;5.53;;;3.25;;
69053;SDS011;56125;52.242;4.756;2023-06-10T08:40:33;6.87;;;3.10;;
69053;SDS011;56125;52.242;4.756;2023-06-10T08:45:36;4.97;;;3.17;;
69053;SDS011;56125;52.242;4.756;2023-06-10T08:50:37;3.93;;;3.20;;
69053;SDS011;56125;52.242;4.756;2023-06-10T08:55:40;5.00;;;3.20;;
69053;SDS011;56125;52.242;4.756;2023-06-10T09:00:42;4.87;;;3.07;;
69053;SDS011;56125;52.242;4.756;2023-06-10T09:05:44;5.90;;;2.90;;
69053;SDS011;56125;52.242;4.756;2023-06-10T09:10:45;6.27;;;2.83;;
69053;SDS011;56125;52.242;4.756;2023-06-10T09:15:47;4.63;;;3.10;;
69053;SDS011;56125;52.242;4.756;2023-06-10T09:20:49;5.77;;;3.00;;
69053;SDS011;56125;52.242;4.756;2023-06-10T09:25:56;4.78;;;3.13;;
69053;SDS011;56125;52.242;4.756;2023-06-10T09:31:02;3.77;;;2.90;;
69053;SDS011;56125;52.242;4.756;2023-06-10T09:36:07;4.68;;;2.42;;
69053;SDS011;56125;52.242;4.756;2023-06-10T09:41:08;5.67;;;2.80;;
69053;SDS011;56125;52.242;4.756;2023-06-10T09:46:19;6.03;;;3.20;;
69053;SDS011;56125;52.242;4.756;2023-06-10T09:51:20;5.27;;;2.80;;
69053;SDS011;56125;52.242;4.756;2023-06-10T09:56:32;5.50;;;3.20;;
69053;SDS011;56125;52.242;4.756;2023-06-10T10:01:34;4.27;;;3.00;;
69053;SDS011;56125;52.242;4.756;2023-06-10T10:06:35;4.88;;;2.97;;
69053;SDS011;56125;52.242;4.756;2023-06-10T10:11:38;4.37;;;3.03;;
69053;SDS011;56125;52.242;4.756;2023-06-10T10:16:40;4.28;;;3.20;;
69053;SDS011;56125;52.242;4.756;2023-06-10T10:21:43;4.30;;;3.20;;
69053;SDS011;56125;52.242;4.756;2023-06-10T10:26:50;5.75;;;3.25;;
69053;SDS011;56125;52.242;4.756;2023-06-10T10:31:58;5.60;;;3.33;;
69053;SDS011;56125;52.242;4.756;2023-06-10T10:37:01;3.83;;;2.80;;
69053;SDS011;56125;52.242;4.756;2023-06-10T10:42:04;5.80;;;3.00;;
69053;SDS011;56125;52.242;4.756;2023-06-10T10:47:08;6.30;;;3.30;;
69053;SDS011;56125;52.242;4.756;2023-06-10T10:52:13;6.77;;;3.03;;
69053;SDS011;56125;52.242;4.756;2023-06-10T10:57:17;6.45;;;3.55;;
69053;SDS011;56125;52.242;4.756;2023-06-10T11:02:36;3.83;;;3.00;;
69053;SDS011;56125;52.242;4.756;2023-06-10T11:07:53;4.22;;;3.00;;
69053;SDS011;56125;52.242;4.756;2023-06-10T11:12:58;4.43;;;2.87;;
69053;SDS011;56125;52.242;4.756;2023-06-10T11:18:12;5.82;;;2.75;;
69053;SDS011;56125;52.242;4.756;2023-06-10T11:23:33;3.83;;;3.00;;
69053;SDS011;56125;52.242;4.756;2023-06-10T11:33:53;4.87;;;2.87;;
69053;SDS011;56125;52.242;4.756;2023-06-10T11:39:00;7.97;;;3.55;;
69053;SDS011;56125;52.242;4.756;2023-06-10T11:44:12;6.23;;;3.20;;
69053;SDS011;56125;52.242;4.756;2023-06-10T11:49:14;5.40;;;3.60;;
69053;SDS011;56125;52.242;4.756;2023-06-10T11:54:16;7.33;;;3.30;;
69053;SDS011;56125;52.242;4.756;2023-06-10T11:59:17;6.70;;;3.55;;
69053;SDS011;56125;52.242;4.756;2023-06-10T12:04:18;5.57;;;3.07;;
69053;SDS011;56125;52.242;4.756;2023-06-10T12:09:26;5.57;;;3.75;;
69053;SDS011;56125;52.242;4.756;2023-06-10T12:19:59;7.00;;;3.67;;
69053;SDS011;56125;52.242;4.756;2023-06-10T12:25:10;7.13;;;3.63;;
69053;SDS011;56125;52.242;4.756;2023-06-10T12:30:18;7.35;;;3.65;;
69053;SDS011;56125;52.242;4.756;2023-06-10T12:35:23;6.07;;;3.50;;
69053;SDS011;56125;52.242;4.756;2023-06-10T12:40:26;7.05;;;3.47;;
69053;SDS011;56125;52.242;4.756;2023-06-10T12:45:33;4.87;;;3.40;;
69053;SDS011;56125;52.242;4.756;2023-06-10T12:50:35;6.05;;;3.40;;
69053;SDS011;56125;52.242;4.756;2023-06-10T12:55:40;5.40;;;3.10;;
69053;SDS011;56125;52.242;4.756;2023-06-10T13:00:41;6.07;;;3.15;;
69053;SDS011;56125;52.242;4.756;2023-06-10T13:05:43;5.33;;;3.40;;
69053;SDS011;56125;52.242;4.756;2023-06-10T13:10:44;5.05;;;2.88;;
69053;SDS011;56125;52.242;4.756;2023-06-10T13:15:45;5.17;;;3.10;;
69053;SDS011;56125;52.242;4.756;2023-06-10T13:20:46;4.78;;;3.40;;
69053;SDS011;56125;52.242;4.756;2023-06-10T13:25:47;6.50;;;3.00;;
69053;SDS011;56125;52.242;4.756;2023-06-10T13:30:48;4.82;;;3.38;;
69053;SDS011;56125;52.242;4.756;2023-06-10T13:35:49;4.87;;;3.13;;
69053;SDS011;56125;52.242;4.756;2023-06-10T13:40:50;5.20;;;3.10;;
69053;SDS011;56125;52.242;4.756;2023-06-10T13:45:51;5.73;;;3.07;;
69053;SDS011;56125;52.242;4.756;2023-06-10T13:50:52;6.72;;;3.03;;
69053;SDS011;56125;52.242;4.756;2023-06-10T13:55:53;6.40;;;3.20;;
69053;SDS011;56125;52.242;4.756;2023-06-10T14:00:54;6.65;;;3.42;;
69053;SDS011;56125;52.242;4.756;2023-06-10T14:05:55;4.87;;;3.10;;
69053;SDS011;56125;52.242;4.756;2023-06-10T14:10:56;6.22;;;3.40;;
69053;SDS011;56125;52.242;4.756;2023-06-10T14:15:57;6.27;;;2.97;;
69053;SDS011;56125;52.242;4.756;2023-06-10T14:21:03;4.82;;;2.90;;
69053;SDS011;56125;52.242;4.756;2023-06-10T14:26:04;6.33;;;3.40;;
69053;SDS011;56125;52.242;4.756;2023-06-10T14:31:07;4.68;;;3.50;;
69053;SDS011;56125;52.242;4.756;2023-06-10T14:36:08;5.57;;;3.30;;
69053;SDS011;56125;52.242;4.756;2023-06-10T14:41:09;7.47;;;3.28;;
69053;SDS011;56125;52.242;4.756;2023-06-10T14:46:10;5.50;;;3.60;;
69053;SDS011;56125;52.242;4.756;2023-06-10T14:51:12;4.75;;;3.22;;
69053;SDS011;56125;52.242;4.756;2023-06-10T14:56:13;5.67;;;2.83;;
69053;SDS011;56125;52.242;4.756;2023-06-10T15:01:14;6.15;;;3.10;;
69053;SDS011;56125;52.242;4.756;2023-06-10T15:06:15;5.77;;;3.00;;
69053;SDS011;56125;52.242;4.756;2023-06-10T15:11:21;4.88;;;3.08;;
69053;SDS011;56125;52.242;4.756;2023-06-10T15:16:22;4.50;;;2.80;;
69053;SDS011;56125;52.242;4.756;2023-06-10T15:21:23;5.57;;;2.95;;
69053;SDS011;56125;52.242;4.756;2023-06-10T15:26:24;4.03;;;3.00;;
69053;SDS011;56125;52.242;4.756;2023-06-10T15:31:25;5.93;;;3.08;;
69053;SDS011;56125;52.242;4.756;2023-06-10T15:36:26;4.67;;;2.70;;
69053;SDS011;56125;52.242;4.756;2023-06-10T15:41:27;4.78;;;2.75;;
69053;SDS011;56125;52.242;4.756;2023-06-10T15:46:29;4.13;;;2.60;;
69053;SDS011;56125;52.242;4.756;2023-06-10T15:51:30;5.10;;;2.90;;
69053;SDS011;56125;52.242;4.756;2023-06-10T15:56:31;6.70;;;2.97;;
69053;SDS011;56125;52.242;4.756;2023-06-10T16:01:33;5.90;;;2.90;;
69053;SDS011;56125;52.242;4.756;2023-06-10T16:06:34;4.87;;;3.00;;
69053;SDS011;56125;52.242;4.756;2023-06-10T16:11:36;5.38;;;2.92;;
69053;SDS011;56125;52.242;4.756;2023-06-10T16:16:37;4.00;;;2.90;;
69053;SDS011;56125;52.242;4.756;2023-06-10T16:21:38;5.80;;;2.80;;
69053;SDS011;56125;52.242;4.756;2023-06-10T16:26:40;3.77;;;2.50;;
69053;SDS011;56125;52.242;4.756;2023-06-10T16:31:41;5.50;;;2.60;;
69053;SDS011;56125;52.242;4.756;2023-06-10T16:36:42;6.40;;;2.77;;
69053;SDS011;56125;52.242;4.756;2023-06-10T16:41:43;4.78;;;2.90;;
69053;SDS011;56125;52.242;4.756;2023-06-10T16:46:44;5.80;;;2.20;;
69053;SDS011;56125;52.242;4.756;2023-06-10T16:51:46;5.32;;;2.60;;
69053;SDS011;56125;52.242;4.756;2023-06-10T16:56:47;3.20;;;2.50;;
69053;SDS011;56125;52.242;4.756;2023-06-10T17:01:48;4.93;;;2.50;;
69053;SDS011;56125;52.242;4.756;2023-06-10T17:06:49;4.53;;;2.60;;
69053;SDS011;56125;52.242;4.756;2023-06-10T17:11:50;3.47;;;2.10;;
69053;SDS011;56125;52.242;4.756;2023-06-10T17:16:51;5.07;;;2.20;;
69053;SDS011;56125;52.242;4.756;2023-06-10T17:21:52;3.45;;;2.50;;
69053;SDS011;56125;52.242;4.756;2023-06-10T17:26:53;4.20;;;2.40;;
69053;SDS011;56125;52.242;4.756;2023-06-10T17:31:54;3.70;;;2.08;;
69053;SDS011;56125;52.242;4.756;2023-06-10T17:36:55;8.93;;;2.10;;
69053;SDS011;56125;52.242;4.756;2023-06-10T17:41:56;6.82;;;2.45;;
69053;SDS011;56125;52.242;4.756;2023-06-10T17:46:57;2.93;;;1.90;;
69053;SDS011;56125;52.242;4.756;2023-06-10T17:51:59;5.05;;;2.08;;
69053;SDS011;56125;52.242;4.756;2023-06-10T17:57:00;3.53;;;1.77;;
69053;SDS011;56125;52.242;4.756;2023-06-10T18:02:01;3.10;;;2.00;;
69053;SDS011;56125;52.242;4.756;2023-06-10T18:07:02;4.20;;;1.90;;
69053;SDS011;56125;52.242;4.756;2023-06-10T18:12:03;4.13;;;2.25;;
69053;SDS011;56125;52.242;4.756;2023-06-10T18:17:05;2.97;;;1.90;;
69053;SDS011;56125;52.242;4.756;2023-06-10T18:22:06;4.20;;;2.65;;
69053;SDS011;56125;52.242;4.756;2023-06-10T18:27:07;3.97;;;2.00;;
69053;SDS011;56125;52.242;4.756;2023-06-10T18:32:09;3.38;;;2.30;;
69053;SDS011;56125;52.242;4.756;2023-06-10T18:37:10;4.40;;;2.60;;
69053;SDS011;56125;52.242;4.756;2023-06-10T18:42:11;5.43;;;2.50;;
69053;SDS011;56125;52.242;4.756;2023-06-10T18:47:12;4.60;;;2.40;;
69053;SDS011;56125;52.242;4.756;2023-06-10T18:52:13;6.05;;;2.55;;
69053;SDS011;56125;52.242;4.756;2023-06-10T18:57:14;5.70;;;2.47;;
69053;SDS011;56125;52.242;4.756;2023-06-10T19:02:15;3.83;;;2.30;;
69053;SDS011;56125;52.242;4.756;2023-06-10T19:07:16;4.07;;;2.40;;
69053;SDS011;56125;52.242;4.756;2023-06-10T19:12:17;3.63;;;2.30;;
69053;SDS011;56125;52.242;4.756;2023-06-10T19:17:19;3.57;;;1.97;;
69053;SDS011;56125;52.242;4.756;2023-06-10T19:22:20;3.92;;;2.03;;
69053;SDS011;56125;52.242;4.756;2023-06-10T19:27:21;3.37;;;2.33;;
69053;SDS011;56125;52.242;4.756;2023-06-10T19:32:22;4.15;;;2.05;;
69053;SDS011;56125;52.242;4.756;2023-06-10T19:37:24;4.23;;;2.30;;
69053;SDS011;56125;52.242;4.756;2023-06-10T19:42:25;4.57;;;2.58;;
69053;SDS011;56125;52.242;4.756;2023-06-10T19:47:26;4.73;;;2.40;;
69053;SDS011;56125;52.242;4.756;2023-06-10T19:52:27;3.50;;;2.20;;
69053;SDS011;56125;52.242;4.756;2023-06-10T19:57:28;4.33;;;2.17;;
69053;SDS011;56125;52.242;4.756;2023-06-10T20:02:30;4.13;;;2.10;;
69053;SDS011;56125;52.242;4.756;2023-06-10T20:07:32;4.13;;;2.10;;
69053;SDS011;56125;52.242;4.756;2023-06-10T20:12:33;4.00;;;2.42;;
69053;SDS011;56125;52.242;4.756;2023-06-10T20:17:34;3.23;;;1.90;;
69053;SDS011;56125;52.242;4.756;2023-06-10T20:22:36;3.92;;;2.40;;
69053;SDS011;56125;52.242;4.756;2023-06-10T20:27:37;2.83;;;2.07;;
69053;SDS011;56125;52.242;4.756;2023-06-10T20:32:38;3.47;;;2.42;;
69053;SDS011;56125;52.242;4.756;2023-06-10T20:37:39;4.43;;;2.37;;
69053;SDS011;56125;52.242;4.756;2023-06-10T20:42:40;3.78;;;2.42;;
69053;SDS011;56125;52.242;4.756;2023-06-10T20:47:41;3.37;;;2.10;;
69053;SDS011;56125;52.242;4.756;2023-06-10T20:52:42;3.55;;;2.15;;
69053;SDS011;56125;52.242;4.756;2023-06-10T20:57:43;4.77;;;2.30;;
69053;SDS011;56125;52.242;4.756;2023-06-10T21:02:44;3.42;;;2.28;;
69053;SDS011;56125;52.242;4.756;2023-06-10T21:07:45;3.00;;;2.00;;
69053;SDS011;56125;52.242;4.756;2023-06-10T21:12:47;3.95;;;2.22;;
69053;SDS011;56125;52.242;4.756;2023-06-10T21:17:48;6.20;;;2.30;;
69053;SDS011;56125;52.242;4.756;2023-06-10T21:22:49;2.80;;;2.17;;
69053;SDS011;56125;52.242;4.756;2023-06-10T21:27:50;2.97;;;2.23;;
69053;SDS011;56125;52.242;4.756;2023-06-10T21:32:51;4.38;;;2.50;;
69053;SDS011;56125;52.242;4.756;2023-06-10T21:37:52;3.40;;;2.07;;
69053;SDS011;56125;52.242;4.756;2023-06-10T21:42:53;3.70;;;2.50;;
69053;SDS011;56125;52.242;4.756;2023-06-10T21:47:54;3.77;;;2.33;;
69053;SDS011;56125;52.242;4.756;2023-06-10T21:52:55;4.75;;;2.35;;
69053;SDS011;56125;52.242;4.756;2023-06-10T21:57:56;3.40;;;2.07;;
69053;SDS011;56125;52.242;4.756;2023-06-10T22:02:57;3.03;;;2.25;;
69053;SDS011;56125;52.242;4.756;2023-06-10T22:07:59;4.63;;;2.43;;
69053;SDS011;56125;52.242;4.756;2023-06-10T22:13:00;3.20;;;2.42;;
69053;SDS011;56125;52.242;4.756;2023-06-10T22:18:01;3.43;;;2.50;;
69053;SDS011;56125;52.242;4.756;2023-06-10T22:23:06;4.13;;;2.40;;
69053;SDS011;56125;52.242;4.756;2023-06-10T22:28:07;4.47;;;2.40;;
69053;SDS011;56125;52.242;4.756;2023-06-10T22:33:08;4.07;;;2.92;;
69053;SDS011;56125;52.242;4.756;2023-06-10T22:38:09;2.90;;;1.87;;
69053;SDS011;56125;52.242;4.756;2023-06-10T22:43:11;4.13;;;2.35;;
69053;SDS011;56125;52.242;4.756;2023-06-10T22:48:12;3.10;;;2.17;;
69053;SDS011;56125;52.242;4.756;2023-06-10T22:53:13;4.25;;;2.40;;
69053;SDS011;56125;52.242;4.756;2023-06-10T22:58:14;3.30;;;2.33;;
69053;SDS011;56125;52.242;4.756;2023-06-10T23:03:15;3.40;;;2.50;;
69053;SDS011;56125;52.242;4.756;2023-06-10T23:08:16;3.47;;;2.33;;
69053;SDS011;56125;52.242;4.756;2023-06-10T23:13:17;4.00;;;2.67;;
69053;SDS011;56125;52.242;4.756;2023-06-10T23:18:18;4.97;;;2.43;;
69053;SDS011;56125;52.242;4.756;2023-06-10T23:23:19;3.55;;;2.50;;
69053;SDS011;56125;52.242;4.756;2023-06-10T23:28:20;3.43;;;2.40;;
69053;SDS011;56125;52.242;4.756;2023-06-10T23:33:24;3.78;;;2.40;;
69053;SDS011;56125;52.242;4.756;2023-06-10T23:38:27;3.47;;;2.10;;
69053;SDS011;56125;52.242;4.756;2023-06-10T23:43:28;4.00;;;2.50;;
69053;SDS011;56125;52.242;4.756;2023-06-10T23:48:29;3.37;;;2.37;;
69053;SDS011;56125;52.242;4.756;2023-06-10T23:53:31;4.22;;;2.67;;
69053;SDS011;56125;52.242;4.756;2023-06-10T23:58:32;3.07;;;2.53;;
